sensor_id;sensor_type;location;lat;lon;timestamp;P1;durP1;ratioP1;P2;durP2;ratioP2
6979;SDS011;3530;52.832;10.680;2023-03-23T00:02:28;4.80;;;3.97;;
6979;SDS011;3530;52.832;10.680;2023-03-23T00:05:14;3.72;;;3.28;;
6979;SDS011;3530;52.832;10.680;2023-03-23T00:08:00;2.80;;;2.70;;
6979;SDS011;3530;52.832;10.680;2023-03-23T00:10:48;4.20;;;3.90;;
6979;SDS011;3530;52.832;10.680;2023-03-23T00:13:42;8.35;;;5.80;;
6979;SDS011;3530;52.832;10.680;2023-03-23T00:16:30;6.65;;;6.00;;
6979;SDS011;3530;52.832;10.680;2023-03-23T00:19:17;14.05;;;12.63;;
6979;SDS011;3530;52.832;10.680;2023-03-23T00:22:04;9.65;;;7.28;;
6979;SDS011;3530;52.832;10.680;2023-03-23T00:24:51;6.32;;;5.72;;
6979;SDS011;3530;52.832;10.680;2023-03-23T00:27:37;6.50;;;5.10;;
6979;SDS011;3530;52.832;10.680;2023-03-23T00:30:23;14.20;;;10.90;;
6979;SDS011;3530;52.832;10.680;2023-03-23T00:33:09;14.80;;;12.52;;
6979;SDS011;3530;52.832;10.680;2023-03-23T00:35:57;4.55;;;4.22;;
6979;SDS011;3530;52.832;10.680;2023-03-23T00:38:43;8.40;;;6.22;;
6979;SDS011;3530;52.832;10.680;2023-03-23T00:41:29;7.47;;;6.43;;
6979;SDS011;3530;52.832;10.680;2023-03-23T00:44:15;5.68;;;5.28;;
6979;SDS011;3530;52.832;10.680;2023-03-23T00:47:04;5.32;;;4.63;;
6979;SDS011;3530;52.832;10.680;2023-03-23T00:49:49;2.35;;;2.20;;
6979;SDS011;3530;52.832;10.680;2023-03-23T00:52:37;5.25;;;2.20;;
6979;SDS011;3530;52.832;10.680;2023-03-23T00:55:23;1.95;;;1.85;;
6979;SDS011;3530;52.832;10.680;2023-03-23T00:58:10;2.40;;;2.25;;
6979;SDS011;3530;52.832;10.680;2023-03-23T01:00:56;3.35;;;2.17;;
6979;SDS011;3530;52.832;10.680;2023-03-23T01:03:42;2.67;;;2.05;;
6979;SDS011;3530;52.832;10.680;2023-03-23T01:06:28;1.75;;;1.65;;
6979;SDS011;3530;52.832;10.680;2023-03-23T01:09:16;2.30;;;2.10;;
6979;SDS011;3530;52.832;10.680;2023-03-23T01:12:02;2.20;;;2.10;;
6979;SDS011;3530;52.832;10.680;2023-03-23T01:14:47;2.35;;;2.22;;
6979;SDS011;3530;52.832;10.680;2023-03-23T01:17:33;2.45;;;2.00;;
6979;SDS011;3530;52.832;10.680;2023-03-23T01:20:18;2.25;;;2.05;;
6979;SDS011;3530;52.832;10.680;2023-03-23T01:23:04;3.92;;;2.00;;
6979;SDS011;3530;52.832;10.680;2023-03-23T01:25:50;3.83;;;1.83;;
6979;SDS011;3530;52.832;10.680;2023-03-23T01:28:38;2.33;;;2.17;;
6979;SDS011;3530;52.832;10.680;2023-03-23T01:31:24;2.45;;;2.13;;
6979;SDS011;3530;52.832;10.680;2023-03-23T01:34:11;4.07;;;2.20;;
6979;SDS011;3530;52.832;10.680;2023-03-23T01:36:57;1.95;;;1.85;;
6979;SDS011;3530;52.832;10.680;2023-03-23T01:39:42;2.28;;;2.10;;
6979;SDS011;3530;52.832;10.680;2023-03-23T01:42:32;4.60;;;2.20;;
6979;SDS011;3530;52.832;10.680;2023-03-23T01:45:25;2.10;;;1.90;;
6979;SDS011;3530;52.832;10.680;2023-03-23T01:48:15;2.30;;;2.13;;
6979;SDS011;3530;52.832;10.680;2023-03-23T01:51:04;2.47;;;2.30;;
6979;SDS011;3530;52.832;10.680;2023-03-23T01:53:56;2.50;;;2.30;;
6979;SDS011;3530;52.832;10.680;2023-03-23T01:56:45;2.15;;;1.95;;
6979;SDS011;3530;52.832;10.680;2023-03-23T01:59:34;2.03;;;1.92;;
6979;SDS011;3530;52.832;10.680;2023-03-23T02:02:21;3.65;;;2.20;;
6979;SDS011;3530;52.832;10.680;2023-03-23T02:05:08;2.60;;;2.40;;
6979;SDS011;3530;52.832;10.680;2023-03-23T02:07:58;2.83;;;2.35;;
6979;SDS011;3530;52.832;10.680;2023-03-23T02:10:48;1.90;;;1.80;;
6979;SDS011;3530;52.832;10.680;2023-03-23T02:13:33;2.38;;;2.17;;
6979;SDS011;3530;52.832;10.680;2023-03-23T02:19:14;2.78;;;2.58;;
6979;SDS011;3530;52.832;10.680;2023-03-23T02:28:16;3.17;;;2.85;;
6979;SDS011;3530;52.832;10.680;2023-03-23T02:31:28;4.25;;;2.33;;
6979;SDS011;3530;52.832;10.680;2023-03-23T02:34:30;2.85;;;2.55;;
6979;SDS011;3530;52.832;10.680;2023-03-23T02:37:20;3.97;;;2.80;;
6979;SDS011;3530;52.832;10.680;2023-03-23T02:40:09;2.83;;;2.45;;
6979;SDS011;3530;52.832;10.680;2023-03-23T02:42:58;2.80;;;2.60;;
6979;SDS011;3530;52.832;10.680;2023-03-23T02:45:44;3.60;;;2.83;;
6979;SDS011;3530;52.832;10.680;2023-03-23T02:48:31;2.40;;;2.17;;
6979;SDS011;3530;52.832;10.680;2023-03-23T02:51:18;3.72;;;2.58;;
6979;SDS011;3530;52.832;10.680;2023-03-23T02:54:05;2.20;;;2.10;;
6979;SDS011;3530;52.832;10.680;2023-03-23T02:56:51;2.28;;;2.13;;
6979;SDS011;3530;52.832;10.680;2023-03-23T02:59:38;3.17;;;2.97;;
6979;SDS011;3530;52.832;10.680;2023-03-23T03:02:25;3.45;;;3.15;;
6979;SDS011;3530;52.832;10.680;2023-03-23T03:05:19;3.22;;;2.70;;
6979;SDS011;3530;52.832;10.680;2023-03-23T03:08:11;6.72;;;2.63;;
6979;SDS011;3530;52.832;10.680;2023-03-23T03:11:14;2.92;;;2.70;;
6979;SDS011;3530;52.832;10.680;2023-03-23T03:14:03;3.20;;;2.47;;
6979;SDS011;3530;52.832;10.680;2023-03-23T03:17:00;3.38;;;2.90;;
6979;SDS011;3530;52.832;10.680;2023-03-23T03:19:49;7.75;;;3.67;;
6979;SDS011;3530;52.832;10.680;2023-03-23T03:22:37;3.15;;;2.95;;
6979;SDS011;3530;52.832;10.680;2023-03-23T03:25:23;3.28;;;2.58;;
6979;SDS011;3530;52.832;10.680;2023-03-23T03:28:10;2.80;;;2.60;;
6979;SDS011;3530;52.832;10.680;2023-03-23T03:30:57;5.57;;;3.47;;
6979;SDS011;3530;52.832;10.680;2023-03-23T03:33:45;2.95;;;2.53;;
6979;SDS011;3530;52.832;10.680;2023-03-23T03:36:33;3.15;;;2.78;;
6979;SDS011;3530;52.832;10.680;2023-03-23T03:39:19;5.57;;;3.20;;
6979;SDS011;3530;52.832;10.680;2023-03-23T03:42:06;2.90;;;2.70;;
6979;SDS011;3530;52.832;10.680;2023-03-23T03:44:52;3.42;;;2.80;;
6979;SDS011;3530;52.832;10.680;2023-03-23T03:47:38;2.85;;;2.75;;
6979;SDS011;3530;52.832;10.680;2023-03-23T03:50:23;2.95;;;2.70;;
6979;SDS011;3530;52.832;10.680;2023-03-23T03:53:09;3.78;;;3.20;;
6979;SDS011;3530;52.832;10.680;2023-03-23T03:55:55;2.75;;;2.55;;
6979;SDS011;3530;52.832;10.680;2023-03-23T03:58:45;2.70;;;2.50;;
6979;SDS011;3530;52.832;10.680;2023-03-23T04:01:33;3.50;;;3.20;;
6979;SDS011;3530;52.832;10.680;2023-03-23T04:04:20;2.40;;;2.30;;
6979;SDS011;3530;52.832;10.680;2023-03-23T04:07:07;4.05;;;3.25;;
6979;SDS011;3530;52.832;10.680;2023-03-23T04:09:56;4.45;;;3.53;;
6979;SDS011;3530;52.832;10.680;2023-03-23T04:12:41;2.83;;;2.63;;
6979;SDS011;3530;52.832;10.680;2023-03-23T04:15:27;3.13;;;2.58;;
6979;SDS011;3530;52.832;10.680;2023-03-23T04:18:13;5.30;;;3.28;;
6979;SDS011;3530;52.832;10.680;2023-03-23T04:21:00;6.53;;;2.95;;
6979;SDS011;3530;52.832;10.680;2023-03-23T04:23:47;3.65;;;3.13;;
6979;SDS011;3530;52.832;10.680;2023-03-23T04:26:33;3.65;;;2.97;;
6979;SDS011;3530;52.832;10.680;2023-03-23T04:29:19;3.83;;;3.17;;
6979;SDS011;3530;52.832;10.680;2023-03-23T04:32:04;2.85;;;2.60;;
6979;SDS011;3530;52.832;10.680;2023-03-23T04:34:50;4.20;;;2.67;;
6979;SDS011;3530;52.832;10.680;2023-03-23T04:37:36;3.05;;;2.75;;
6979;SDS011;3530;52.832;10.680;2023-03-23T04:40:22;3.40;;;3.05;;
6979;SDS011;3530;52.832;10.680;2023-03-23T04:43:08;2.72;;;2.53;;
6979;SDS011;3530;52.832;10.680;2023-03-23T04:45:58;2.92;;;2.35;;
6979;SDS011;3530;52.832;10.680;2023-03-23T04:48:45;2.72;;;2.53;;
6979;SDS011;3530;52.832;10.680;2023-03-23T04:51:31;2.92;;;2.70;;
6979;SDS011;3530;52.832;10.680;2023-03-23T04:54:16;3.00;;;2.65;;
6979;SDS011;3530;52.832;10.680;2023-03-23T04:57:02;2.95;;;2.75;;
6979;SDS011;3530;52.832;10.680;2023-03-23T04:59:48;5.60;;;2.67;;
6979;SDS011;3530;52.832;10.680;2023-03-23T05:02:36;8.02;;;2.35;;
6979;SDS011;3530;52.832;10.680;2023-03-23T05:05:22;2.75;;;2.53;;
6979;SDS011;3530;52.832;10.680;2023-03-23T05:08:08;2.45;;;2.25;;
6979;SDS011;3530;52.832;10.680;2023-03-23T05:10:55;3.15;;;2.85;;
6979;SDS011;3530;52.832;10.680;2023-03-23T05:13:42;2.78;;;2.55;;
6979;SDS011;3530;52.832;10.680;2023-03-23T05:16:29;3.47;;;2.50;;
6979;SDS011;3530;52.832;10.680;2023-03-23T05:19:15;2.30;;;2.20;;
6979;SDS011;3530;52.832;10.680;2023-03-23T05:22:01;2.60;;;2.40;;
6979;SDS011;3530;52.832;10.680;2023-03-23T05:24:48;3.20;;;2.53;;
6979;SDS011;3530;52.832;10.680;2023-03-23T05:27:37;3.00;;;2.60;;
6979;SDS011;3530;52.832;10.680;2023-03-23T05:30:22;2.17;;;2.08;;
6979;SDS011;3530;52.832;10.680;2023-03-23T05:33:08;2.97;;;2.15;;
6979;SDS011;3530;52.832;10.680;2023-03-23T05:35:54;3.85;;;2.67;;
6979;SDS011;3530;52.832;10.680;2023-03-23T05:38:40;3.25;;;2.50;;
6979;SDS011;3530;52.832;10.680;2023-03-23T05:41:30;3.00;;;2.78;;
6979;SDS011;3530;52.832;10.680;2023-03-23T05:44:16;3.58;;;2.42;;
6979;SDS011;3530;52.832;10.680;2023-03-23T05:47:01;3.30;;;3.00;;
6979;SDS011;3530;52.832;10.680;2023-03-23T05:49:48;3.60;;;3.00;;
6979;SDS011;3530;52.832;10.680;2023-03-23T05:52:34;2.80;;;2.53;;
6979;SDS011;3530;52.832;10.680;2023-03-23T05:55:23;5.90;;;3.53;;
6979;SDS011;3530;52.832;10.680;2023-03-23T05:58:09;3.17;;;2.80;;
6979;SDS011;3530;52.832;10.680;2023-03-23T06:00:54;5.30;;;2.63;;
6979;SDS011;3530;52.832;10.680;2023-03-23T06:03:40;2.30;;;2.20;;
6979;SDS011;3530;52.832;10.680;2023-03-23T06:06:26;4.15;;;2.90;;
6979;SDS011;3530;52.832;10.680;2023-03-23T06:09:12;6.13;;;2.85;;
6979;SDS011;3530;52.832;10.680;2023-03-23T06:11:57;4.93;;;3.00;;
6979;SDS011;3530;52.832;10.680;2023-03-23T06:14:43;5.22;;;3.03;;
6979;SDS011;3530;52.832;10.680;2023-03-23T06:17:29;4.88;;;2.85;;
6979;SDS011;3530;52.832;10.680;2023-03-23T06:20:15;3.45;;;3.15;;
6979;SDS011;3530;52.832;10.680;2023-03-23T06:23:00;4.70;;;2.50;;
6979;SDS011;3530;52.832;10.680;2023-03-23T06:25:46;3.10;;;2.80;;
6979;SDS011;3530;52.832;10.680;2023-03-23T06:28:32;2.40;;;2.30;;
6979;SDS011;3530;52.832;10.680;2023-03-23T06:31:19;4.65;;;3.10;;
6979;SDS011;3530;52.832;10.680;2023-03-23T06:34:05;2.85;;;2.65;;
6979;SDS011;3530;52.832;10.680;2023-03-23T06:36:52;2.60;;;2.40;;
6979;SDS011;3530;52.832;10.680;2023-03-23T06:39:38;2.42;;;2.33;;
6979;SDS011;3530;52.832;10.680;2023-03-23T06:42:24;4.13;;;2.60;;
6979;SDS011;3530;52.832;10.680;2023-03-23T06:45:10;4.10;;;2.90;;
6979;SDS011;3530;52.832;10.680;2023-03-23T06:47:56;2.08;;;1.92;;
6979;SDS011;3530;52.832;10.680;2023-03-23T06:50:42;2.50;;;2.30;;
6979;SDS011;3530;52.832;10.680;2023-03-23T06:53:29;2.88;;;2.65;;
6979;SDS011;3530;52.832;10.680;2023-03-23T06:56:15;2.33;;;2.22;;
6979;SDS011;3530;52.832;10.680;2023-03-23T06:59:00;3.40;;;2.58;;
6979;SDS011;3530;52.832;10.680;2023-03-23T07:01:46;3.42;;;3.03;;
6979;SDS011;3530;52.832;10.680;2023-03-23T07:04:33;2.58;;;2.47;;
6979;SDS011;3530;52.832;10.680;2023-03-23T07:07:19;2.15;;;1.95;;
6979;SDS011;3530;52.832;10.680;2023-03-23T07:10:06;2.13;;;2.00;;
6979;SDS011;3530;52.832;10.680;2023-03-23T07:12:54;2.17;;;2.08;;
6979;SDS011;3530;52.832;10.680;2023-03-23T07:15:39;2.40;;;2.28;;
6979;SDS011;3530;52.832;10.680;2023-03-23T07:18:25;2.28;;;2.10;;
6979;SDS011;3530;52.832;10.680;2023-03-23T07:21:11;2.10;;;2.00;;
6979;SDS011;3530;52.832;10.680;2023-03-23T07:23:56;2.35;;;1.90;;
6979;SDS011;3530;52.832;10.680;2023-03-23T07:26:42;2.58;;;2.00;;
6979;SDS011;3530;52.832;10.680;2023-03-23T07:29:28;2.25;;;2.15;;
6979;SDS011;3530;52.832;10.680;2023-03-23T07:32:13;2.42;;;1.90;;
6979;SDS011;3530;52.832;10.680;2023-03-23T07:34:59;1.95;;;1.85;;
6979;SDS011;3530;52.832;10.680;2023-03-23T07:37:45;1.98;;;1.88;;
6979;SDS011;3530;52.832;10.680;2023-03-23T07:40:34;3.30;;;1.90;;
6979;SDS011;3530;52.832;10.680;2023-03-23T07:43:19;1.70;;;1.67;;
6979;SDS011;3530;52.832;10.680;2023-03-23T07:46:06;2.22;;;2.10;;
6979;SDS011;3530;52.832;10.680;2023-03-23T07:48:52;1.92;;;1.83;;
6979;SDS011;3530;52.832;10.680;2023-03-23T07:51:38;1.50;;;1.45;;
6979;SDS011;3530;52.832;10.680;2023-03-23T07:54:24;1.80;;;1.70;;
6979;SDS011;3530;52.832;10.680;2023-03-23T07:57:10;2.00;;;1.58;;
6979;SDS011;3530;52.832;10.680;2023-03-23T07:59:55;2.03;;;1.92;;
6979;SDS011;3530;52.832;10.680;2023-03-23T08:02:42;1.50;;;1.40;;
6979;SDS011;3530;52.832;10.680;2023-03-23T08:05:27;1.50;;;1.50;;
6979;SDS011;3530;52.832;10.680;2023-03-23T08:08:13;3.25;;;2.22;;
6979;SDS011;3530;52.832;10.680;2023-03-23T08:10:59;2.10;;;1.80;;
6979;SDS011;3530;52.832;10.680;2023-03-23T08:13:45;1.65;;;1.65;;
6979;SDS011;3530;52.832;10.680;2023-03-23T08:16:32;1.83;;;1.73;;
6979;SDS011;3530;52.832;10.680;2023-03-23T08:19:18;2.25;;;1.70;;
6979;SDS011;3530;52.832;10.680;2023-03-23T08:22:04;1.65;;;1.55;;
6979;SDS011;3530;52.832;10.680;2023-03-23T08:24:50;1.50;;;1.50;;
6979;SDS011;3530;52.832;10.680;2023-03-23T08:27:35;1.90;;;1.80;;
6979;SDS011;3530;52.832;10.680;2023-03-23T08:30:21;2.17;;;1.98;;
6979;SDS011;3530;52.832;10.680;2023-03-23T08:33:11;1.65;;;1.55;;
6979;SDS011;3530;52.832;10.680;2023-03-23T08:35:57;1.58;;;1.58;;
6979;SDS011;3530;52.832;10.680;2023-03-23T08:38:43;1.67;;;1.67;;
6979;SDS011;3530;52.832;10.680;2023-03-23T08:41:29;1.80;;;1.70;;
6979;SDS011;3530;52.832;10.680;2023-03-23T08:44:15;2.20;;;2.05;;
6979;SDS011;3530;52.832;10.680;2023-03-23T08:47:01;1.85;;;1.75;;
6979;SDS011;3530;52.832;10.680;2023-03-23T08:49:48;1.50;;;1.50;;
6979;SDS011;3530;52.832;10.680;2023-03-23T08:52:38;1.88;;;1.70;;
6979;SDS011;3530;52.832;10.680;2023-03-23T08:55:23;1.70;;;1.60;;
6979;SDS011;3530;52.832;10.680;2023-03-23T08:58:09;1.90;;;1.80;;
6979;SDS011;3530;52.832;10.680;2023-03-23T09:00:55;1.85;;;1.75;;
6979;SDS011;3530;52.832;10.680;2023-03-23T09:03:41;2.08;;;1.65;;
6979;SDS011;3530;52.832;10.680;2023-03-23T09:06:27;1.80;;;1.70;;
6979;SDS011;3530;52.832;10.680;2023-03-23T09:09:12;2.90;;;2.00;;
6979;SDS011;3530;52.832;10.680;2023-03-23T09:11:58;4.07;;;2.10;;
6979;SDS011;3530;52.832;10.680;2023-03-23T09:14:44;1.70;;;1.60;;
6979;SDS011;3530;52.832;10.680;2023-03-23T09:17:30;2.17;;;1.90;;
6979;SDS011;3530;52.832;10.680;2023-03-23T09:20:21;1.60;;;1.50;;
6979;SDS011;3530;52.832;10.680;2023-03-23T09:23:07;2.30;;;2.03;;
6979;SDS011;3530;52.832;10.680;2023-03-23T09:25:53;1.80;;;1.70;;
6979;SDS011;3530;52.832;10.680;2023-03-23T09:28:39;2.17;;;2.08;;
6979;SDS011;3530;52.832;10.680;2023-03-23T09:31:25;2.13;;;2.03;;
6979;SDS011;3530;52.832;10.680;2023-03-23T09:34:14;2.20;;;1.90;;
6979;SDS011;3530;52.832;10.680;2023-03-23T09:37:00;2.72;;;1.83;;
6979;SDS011;3530;52.832;10.680;2023-03-23T09:39:49;1.90;;;1.80;;
6979;SDS011;3530;52.832;10.680;2023-03-23T09:42:39;2.22;;;1.90;;
6979;SDS011;3530;52.832;10.680;2023-03-23T09:48:43;1.60;;;1.50;;
6979;SDS011;3530;52.832;10.680;2023-03-23T09:51:48;1.95;;;1.85;;
6979;SDS011;3530;52.832;10.680;2023-03-23T09:54:37;4.28;;;2.15;;
6979;SDS011;3530;52.832;10.680;2023-03-23T10:00:58;2.10;;;1.92;;
6979;SDS011;3530;52.832;10.680;2023-03-23T10:03:48;3.20;;;2.28;;
6979;SDS011;3530;52.832;10.680;2023-03-23T10:06:33;2.00;;;1.90;;
6979;SDS011;3530;52.832;10.680;2023-03-23T10:09:19;2.03;;;1.70;;
6979;SDS011;3530;52.832;10.680;2023-03-23T10:15:14;1.85;;;1.77;;
6979;SDS011;3530;52.832;10.680;2023-03-23T10:18:03;2.80;;;2.20;;
6979;SDS011;3530;52.832;10.680;2023-03-23T10:20:55;1.90;;;1.80;;
6979;SDS011;3530;52.832;10.680;2023-03-23T10:23:44;1.52;;;1.52;;
6979;SDS011;3530;52.832;10.680;2023-03-23T10:26:36;1.90;;;1.80;;
6979;SDS011;3530;52.832;10.680;2023-03-23T10:29:28;5.38;;;2.20;;
6979;SDS011;3530;52.832;10.680;2023-03-23T10:32:17;2.00;;;1.90;;
6979;SDS011;3530;52.832;10.680;2023-03-23T10:35:06;1.40;;;1.40;;
6979;SDS011;3530;52.832;10.680;2023-03-23T10:37:59;4.10;;;2.15;;
6979;SDS011;3530;52.832;10.680;2023-03-23T10:40:50;2.58;;;1.92;;
6979;SDS011;3530;52.832;10.680;2023-03-23T10:43:39;4.03;;;2.45;;
6979;SDS011;3530;52.832;10.680;2023-03-23T10:49:41;3.30;;;2.10;;
6979;SDS011;3530;52.832;10.680;2023-03-23T10:52:37;3.58;;;2.13;;
6979;SDS011;3530;52.832;10.680;2023-03-23T10:55:34;2.42;;;2.08;;
6979;SDS011;3530;52.832;10.680;2023-03-23T10:58:28;2.65;;;2.42;;
6979;SDS011;3530;52.832;10.680;2023-03-23T11:01:15;6.38;;;2.45;;
6979;SDS011;3530;52.832;10.680;2023-03-23T11:04:10;4.43;;;2.00;;
6979;SDS011;3530;52.832;10.680;2023-03-23T11:07:01;3.45;;;2.05;;
6979;SDS011;3530;52.832;10.680;2023-03-23T11:09:51;5.38;;;1.73;;
6979;SDS011;3530;52.832;10.680;2023-03-23T11:12:39;2.03;;;1.92;;
6979;SDS011;3530;52.832;10.680;2023-03-23T11:15:48;3.10;;;1.85;;
6979;SDS011;3530;52.832;10.680;2023-03-23T11:18:35;1.35;;;1.30;;
6979;SDS011;3530;52.832;10.680;2023-03-23T11:21:25;3.67;;;2.03;;
6979;SDS011;3530;52.832;10.680;2023-03-23T11:24:12;2.83;;;2.00;;
6979;SDS011;3530;52.832;10.680;2023-03-23T11:26:58;1.85;;;1.75;;
6979;SDS011;3530;52.832;10.680;2023-03-23T11:29:53;2.05;;;1.95;;
6979;SDS011;3530;52.832;10.680;2023-03-23T11:32:42;1.50;;;1.42;;
6979;SDS011;3530;52.832;10.680;2023-03-23T11:35:29;2.45;;;1.60;;
6979;SDS011;3530;52.832;10.680;2023-03-23T11:38:17;1.38;;;1.38;;
6979;SDS011;3530;52.832;10.680;2023-03-23T11:41:08;2.20;;;2.10;;
6979;SDS011;3530;52.832;10.680;2023-03-23T11:43:56;2.05;;;1.90;;
6979;SDS011;3530;52.832;10.680;2023-03-23T11:46:47;1.52;;;1.45;;
6979;SDS011;3530;52.832;10.680;2023-03-23T11:49:49;2.45;;;1.70;;
6979;SDS011;3530;52.832;10.680;2023-03-23T11:56:06;1.63;;;1.52;;
6979;SDS011;3530;52.832;10.680;2023-03-23T11:58:58;2.15;;;2.05;;
6979;SDS011;3530;52.832;10.680;2023-03-23T12:01:52;2.92;;;1.65;;
6979;SDS011;3530;52.832;10.680;2023-03-23T12:10:50;2.35;;;1.70;;
6979;SDS011;3530;52.832;10.680;2023-03-23T12:13:56;1.80;;;1.70;;
6979;SDS011;3530;52.832;10.680;2023-03-23T12:20:06;2.63;;;1.20;;
6979;SDS011;3530;52.832;10.680;2023-03-23T12:23:21;1.42;;;1.33;;
6979;SDS011;3530;52.832;10.680;2023-03-23T12:26:19;2.97;;;1.42;;
6979;SDS011;3530;52.832;10.680;2023-03-23T12:35:20;3.63;;;2.40;;
6979;SDS011;3530;52.832;10.680;2023-03-23T12:41:16;3.40;;;3.10;;
6979;SDS011;3530;52.832;10.680;2023-03-23T12:44:05;10.88;;;8.95;;
6979;SDS011;3530;52.832;10.680;2023-03-23T12:47:02;12.00;;;9.40;;
6979;SDS011;3530;52.832;10.680;2023-03-23T12:50:42;9.95;;;5.43;;
6979;SDS011;3530;52.832;10.680;2023-03-23T12:53:37;6.00;;;5.40;;
6979;SDS011;3530;52.832;10.680;2023-03-23T12:59:53;6.60;;;5.50;;
6979;SDS011;3530;52.832;10.680;2023-03-23T13:02:43;6.65;;;5.22;;
6979;SDS011;3530;52.832;10.680;2023-03-23T13:05:41;7.43;;;5.07;;
6979;SDS011;3530;52.832;10.680;2023-03-23T13:11:19;4.63;;;3.80;;
6979;SDS011;3530;52.832;10.680;2023-03-23T13:23:24;4.72;;;2.97;;
6979;SDS011;3530;52.832;10.680;2023-03-23T13:26:13;6.78;;;5.70;;
6979;SDS011;3530;52.832;10.680;2023-03-23T13:29:01;9.73;;;6.78;;
6979;SDS011;3530;52.832;10.680;2023-03-23T13:32:10;6.85;;;5.88;;
6979;SDS011;3530;52.832;10.680;2023-03-23T13:34:57;9.25;;;7.22;;
6979;SDS011;3530;52.832;10.680;2023-03-23T13:37:48;6.57;;;4.10;;
6979;SDS011;3530;52.832;10.680;2023-03-23T13:40:35;4.22;;;3.92;;
6979;SDS011;3530;52.832;10.680;2023-03-23T13:43:29;8.27;;;3.65;;
6979;SDS011;3530;52.832;10.680;2023-03-23T13:51:59;3.95;;;3.60;;
6979;SDS011;3530;52.832;10.680;2023-03-23T13:54:51;5.63;;;3.38;;
6979;SDS011;3530;52.832;10.680;2023-03-23T13:57:48;4.70;;;3.72;;
6979;SDS011;3530;52.832;10.680;2023-03-23T14:00:45;7.93;;;6.05;;
6979;SDS011;3530;52.832;10.680;2023-03-23T14:03:36;3.63;;;3.33;;
6979;SDS011;3530;52.832;10.680;2023-03-23T14:06:23;6.07;;;3.63;;
6979;SDS011;3530;52.832;10.680;2023-03-23T14:09:15;4.75;;;3.72;;
6979;SDS011;3530;52.832;10.680;2023-03-23T14:12:12;12.10;;;6.03;;
6979;SDS011;3530;52.832;10.680;2023-03-23T14:15:11;5.75;;;4.13;;
6979;SDS011;3530;52.832;10.680;2023-03-23T14:17:57;5.32;;;3.65;;
6979;SDS011;3530;52.832;10.680;2023-03-23T14:20:47;8.75;;;5.22;;
6979;SDS011;3530;52.832;10.680;2023-03-23T14:23:33;4.78;;;3.60;;
6979;SDS011;3530;52.832;10.680;2023-03-23T14:26:20;5.57;;;3.03;;
6979;SDS011;3530;52.832;10.680;2023-03-23T14:29:06;4.63;;;2.95;;
6979;SDS011;3530;52.832;10.680;2023-03-23T14:31:55;2.22;;;2.03;;
6979;SDS011;3530;52.832;10.680;2023-03-23T14:34:42;4.32;;;3.90;;
6979;SDS011;3530;52.832;10.680;2023-03-23T14:37:29;7.15;;;3.80;;
6979;SDS011;3530;52.832;10.680;2023-03-23T14:40:16;3.65;;;3.30;;
6979;SDS011;3530;52.832;10.680;2023-03-23T14:43:03;2.95;;;2.75;;
6979;SDS011;3530;52.832;10.680;2023-03-23T14:45:52;2.28;;;2.17;;
6979;SDS011;3530;52.832;10.680;2023-03-23T14:48:39;2.58;;;1.92;;
6979;SDS011;3530;52.832;10.680;2023-03-23T14:51:25;1.80;;;1.70;;
6979;SDS011;3530;52.832;10.680;2023-03-23T14:54:10;3.38;;;2.30;;
6979;SDS011;3530;52.832;10.680;2023-03-23T14:57:02;4.65;;;2.10;;
6979;SDS011;3530;52.832;10.680;2023-03-23T14:59:48;1.98;;;1.80;;
6979;SDS011;3530;52.832;10.680;2023-03-23T15:02:36;1.92;;;1.90;;
6979;SDS011;3530;52.832;10.680;2023-03-23T15:05:26;2.25;;;2.13;;
6979;SDS011;3530;52.832;10.680;2023-03-23T15:08:15;1.95;;;1.85;;
6979;SDS011;3530;52.832;10.680;2023-03-23T15:11:07;2.03;;;1.92;;
6979;SDS011;3530;52.832;10.680;2023-03-23T15:13:57;1.80;;;1.77;;
6979;SDS011;3530;52.832;10.680;2023-03-23T15:16:49;2.85;;;2.58;;
6979;SDS011;3530;52.832;10.680;2023-03-23T15:19:37;1.92;;;1.48;;
6979;SDS011;3530;52.832;10.680;2023-03-23T15:22:29;2.22;;;1.92;;
6979;SDS011;3530;52.832;10.680;2023-03-23T15:28:17;1.50;;;1.50;;
6979;SDS011;3530;52.832;10.680;2023-03-23T15:31:03;1.10;;;1.10;;
6979;SDS011;3530;52.832;10.680;2023-03-23T15:33:54;4.70;;;1.58;;
6979;SDS011;3530;52.832;10.680;2023-03-23T15:36:41;1.48;;;1.38;;
6979;SDS011;3530;52.832;10.680;2023-03-23T15:39:29;1.10;;;1.10;;
6979;SDS011;3530;52.832;10.680;2023-03-23T15:42:34;1.27;;;1.17;;
6979;SDS011;3530;52.832;10.680;2023-03-23T15:45:25;2.35;;;1.10;;
6979;SDS011;3530;52.832;10.680;2023-03-23T15:48:12;1.02;;;1.00;;
6979;SDS011;3530;52.832;10.680;2023-03-23T15:50:58;1.30;;;1.30;;
6979;SDS011;3530;52.832;10.680;2023-03-23T15:53:44;1.00;;;1.00;;
6979;SDS011;3530;52.832;10.680;2023-03-23T15:56:30;0.90;;;0.90;;
6979;SDS011;3530;52.832;10.680;2023-03-23T15:59:16;1.55;;;1.10;;
6979;SDS011;3530;52.832;10.680;2023-03-23T16:02:02;1.10;;;1.10;;
6979;SDS011;3530;52.832;10.680;2023-03-23T16:04:48;1.35;;;1.10;;
6979;SDS011;3530;52.832;10.680;2023-03-23T16:07:35;1.38;;;1.10;;
6979;SDS011;3530;52.832;10.680;2023-03-23T16:10:21;1.02;;;1.02;;
6979;SDS011;3530;52.832;10.680;2023-03-23T16:13:08;1.55;;;1.10;;
6979;SDS011;3530;52.832;10.680;2023-03-23T16:15:53;1.00;;;1.00;;
6979;SDS011;3530;52.832;10.680;2023-03-23T16:18:39;4.57;;;1.10;;
6979;SDS011;3530;52.832;10.680;2023-03-23T16:21:25;1.00;;;1.00;;
6979;SDS011;3530;52.832;10.680;2023-03-23T16:24:11;1.20;;;1.20;;
6979;SDS011;3530;52.832;10.680;2023-03-23T16:26:56;0.93;;;0.93;;
6979;SDS011;3530;52.832;10.680;2023-03-23T16:29:42;1.15;;;1.00;;
6979;SDS011;3530;52.832;10.680;2023-03-23T16:32:28;1.00;;;1.00;;
6979;SDS011;3530;52.832;10.680;2023-03-23T16:35:14;1.58;;;1.48;;
6979;SDS011;3530;52.832;10.680;2023-03-23T16:38:00;1.23;;;1.23;;
6979;SDS011;3530;52.832;10.680;2023-03-23T16:40:46;1.13;;;1.13;;
6979;SDS011;3530;52.832;10.680;2023-03-23T16:43:31;1.70;;;1.23;;
6979;SDS011;3530;52.832;10.680;2023-03-23T16:46:17;1.35;;;1.35;;
6979;SDS011;3530;52.832;10.680;2023-03-23T16:49:03;1.40;;;1.30;;
6979;SDS011;3530;52.832;10.680;2023-03-23T16:51:48;3.35;;;1.73;;
6979;SDS011;3530;52.832;10.680;2023-03-23T16:54:34;1.50;;;1.40;;
6979;SDS011;3530;52.832;10.680;2023-03-23T16:57:19;1.25;;;1.23;;
6979;SDS011;3530;52.832;10.680;2023-03-23T17:00:08;1.27;;;1.27;;
6979;SDS011;3530;52.832;10.680;2023-03-23T17:03:04;2.00;;;1.40;;
6979;SDS011;3530;52.832;10.680;2023-03-23T17:05:50;1.52;;;1.42;;
6979;SDS011;3530;52.832;10.680;2023-03-23T17:08:36;1.83;;;1.40;;
6979;SDS011;3530;52.832;10.680;2023-03-23T17:11:22;2.38;;;1.85;;
6979;SDS011;3530;52.832;10.680;2023-03-23T17:14:07;1.83;;;1.75;;
6979;SDS011;3530;52.832;10.680;2023-03-23T17:16:53;2.47;;;1.50;;
6979;SDS011;3530;52.832;10.680;2023-03-23T17:19:39;1.58;;;1.58;;
6979;SDS011;3530;52.832;10.680;2023-03-23T17:22:25;1.30;;;1.30;;
6979;SDS011;3530;52.832;10.680;2023-03-23T17:25:11;2.10;;;1.52;;
6979;SDS011;3530;52.832;10.680;2023-03-23T17:27:57;1.52;;;1.40;;
6979;SDS011;3530;52.832;10.680;2023-03-23T17:30:43;1.48;;;1.20;;
6979;SDS011;3530;52.832;10.680;2023-03-23T17:33:29;1.50;;;1.40;;
6979;SDS011;3530;52.832;10.680;2023-03-23T17:36:15;1.65;;;1.55;;
6979;SDS011;3530;52.832;10.680;2023-03-23T17:39:00;1.55;;;1.52;;
6979;SDS011;3530;52.832;10.680;2023-03-23T17:41:46;1.30;;;1.30;;
6979;SDS011;3530;52.832;10.680;2023-03-23T17:44:32;2.10;;;1.55;;
6979;SDS011;3530;52.832;10.680;2023-03-23T17:47:18;4.88;;;1.60;;
6979;SDS011;3530;52.832;10.680;2023-03-23T17:50:04;2.15;;;1.55;;
6979;SDS011;3530;52.832;10.680;2023-03-23T17:52:50;1.70;;;1.60;;
6979;SDS011;3530;52.832;10.680;2023-03-23T17:55:36;2.35;;;1.35;;
6979;SDS011;3530;52.832;10.680;2023-03-23T17:58:22;1.25;;;1.25;;
6979;SDS011;3530;52.832;10.680;2023-03-23T18:01:09;2.22;;;1.67;;
6979;SDS011;3530;52.832;10.680;2023-03-23T18:03:55;3.05;;;1.60;;
6979;SDS011;3530;52.832;10.680;2023-03-23T18:06:40;2.70;;;1.70;;
6979;SDS011;3530;52.832;10.680;2023-03-23T18:09:26;1.60;;;1.55;;
6979;SDS011;3530;52.832;10.680;2023-03-23T18:12:12;3.05;;;1.92;;
6979;SDS011;3530;52.832;10.680;2023-03-23T18:14:58;1.77;;;1.67;;
6979;SDS011;3530;52.832;10.680;2023-03-23T18:17:43;1.70;;;1.60;;